• Join FlightAware (Why Join?)
  • Login
  • US Flag 
06:58AM EST


 

Airport Tracker/Info


-or-


 

Live Flight TrackerFlight Track Log ✈ AAL794 ✈ 20-May-2013 ✈ KLAS - KORD

Flight Track Log - Related Links

Times and Time Zones

All times are in EDT time to prevent confusion due to time zone crossing. See the AAL794 flight status page for this flight to view local times or setup timezone preferences in your user account.

Time Position Orientation Groundspeed Altitude Reporting Facility
EDT Latitude Longitude Course Direction KTS MPH feet Rate Location/Type
09:16PM 36.1142 -115.1450 90° East 182 209 3,000  Level Los Angeles Center
09:18PM 36.1344 -115.0397 77° East 246 283 5,100 1,560 Climbing Los Angeles Center
09:19PM 36.1768 -114.7229 70° East  Level FlightAware Approximate
09:19PM 36.1436 -114.9622 82° East 272 313 6,700  Level Los Angeles Center
09:20PM 36.1834 -114.5725 90° East  Level FlightAware Approximate
09:20PM 36.1536 -114.8603 83° East 285 328 9,400  Level Los Angeles Center
09:21PM 36.1833 -114.4207 90° East  Level FlightAware Approximate
09:21PM 36.1583 -114.7478 87° East 303 349 10,900  Level Los Angeles Center
09:22PM 36.1833 -114.2689 90° East  Level FlightAware Approximate
09:22PM 36.1672 -114.6242 85° East 353 406 12,100  Level Los Angeles Center
09:23PM 36.1767 -114.4614 86° East 392 451 14,600 2,160 Climbing Los Angeles Center
09:24PM 36.1864 -114.3211 85° East 406 467 16,600 1,860 Climbing Los Angeles Center
09:25PM 36.1989 -114.1775 84° East 418 481 18,500 1,620 Climbing Los Angeles Center
09:26PM 36.2172 -114.0292 81° East 432 497 20,000 1,320 Climbing Los Angeles Center
09:27PM 36.2358 -113.8778 81° East 442 509 21,300 1,260 Climbing Los Angeles Center
09:28PM 36.2539 -113.7211 82° East 454 522 22,600 1,200 Climbing Los Angeles Center
09:29PM 36.2717 -113.5617 82° East 463 533 23,800 1,020 Climbing Los Angeles Center
09:30PM 36.2906 -113.3983 82° East 475 547 24,800 1,260 Climbing Los Angeles Center
09:31PM 36.3131 -113.2211 81° East 487 560 26,400 1,260 Climbing Los Angeles Center
09:33PM 36.3650 -113.0767 66° East 464 534 27,700 1,260 Climbing Los Angeles Center
09:34PM 36.4411 -112.8756 65° Northeast 461 531 29,400 1,440 Climbing Los Angeles Center
09:35PM 36.4928 -112.7322 66° East 459 528 30,700 780 Climbing Los Angeles Center
09:36PM 36.5456 -112.5914 65° Northeast 454 522 31,000 120 Climbing Los Angeles Center
09:37PM 36.5981 -112.4472 66° East 458 527 31,000  Level Los Angeles Center
09:38PM 36.6592 -112.2775 66° East 453 521 31,000  Level Los Angeles Center
09:39PM 36.7111 -112.1353 65° Northeast 453 521 31,000  Level Los Angeles Center
09:40PM 36.7733 -111.9636 66° East 454 522 31,000  Level Los Angeles Center
09:41PM 36.8239 -111.8214 66° East 453 521 31,000  Level Los Angeles Center
09:42PM 36.8853 -111.6519 66° East 450 518 31,000  Level Los Angeles Center
09:43PM 36.9281 -111.5367 65° Northeast 452 520 31,000  Level Denver Center
09:44PM 36.9872 -111.3692 66° East 445 512 31,000  Level Denver Center
09:46PM 37.0467 -111.1970 67° East  Level FlightAware Approximate
09:47PM 37.1319 -110.9494 67° East 444 511 31,000  Level Denver Center
09:48PM 37.1800 -110.8083 67° East 443 510 31,000  Level Denver Center
09:49PM 37.2289 -110.6653 67° East 447 514 31,000  Level Denver Center
09:50PM 37.2903 -110.4931 66° East 451 519 31,000  Level Denver Center
09:51PM 37.3367 -110.3514 68° East 443 510 31,000  Level Denver Center
09:52PM 37.3844 -110.2128 67° East 434 499 31,000  Level Denver Center
09:53PM 37.3754 -110.2281 67° East  Level FlightAware Approximate
09:53PM 37.4322 -110.0736 67° East 432 497 31,000  Level Denver Center
09:54PM 37.4764 -109.9397 67° East 433 498 31,000  Level Denver Center
09:55PM 37.5214 -109.8061 67° East 431 496 31,000  Level Denver Center
09:56PM 37.5731 -109.6506 67° East 429 494 31,000  Level Denver Center
09:58PM 37.6247 -109.4953 67° East 430 495 31,000  Level Denver Center
09:59PM 37.6806 -109.3681 61° Northeast 431 496 31,000  Level Denver Center
10:00PM 37.7444 -109.2214 61° Northeast 428 493 31,000  Level Denver Center
10:01PM 37.7989 -109.0936 62° Northeast 431 496 31,000 240 Level Denver Center
10:02PM 37.8528 -108.9647 62° Northeast 432 497 31,500 720 Climbing Denver Center
10:03PM 37.9133 -108.8178 62° Northeast 423 487 32,500 660 Climbing Denver Center
10:04PM 37.9664 -108.6914 62° Northeast 424 488 32,900 240 Climbing Denver Center
10:05PM 38.0278 -108.5414 63° Northeast 427 491 33,000  Climbing Denver Center
10:06PM 38.0817 -108.4058 63° Northeast 435 501 33,000  Level Denver Center
10:07PM 38.1442 -108.2531 62° Northeast 435 501 33,000  Level Denver Center
10:08PM 38.1958 -108.1250 63° Northeast 428 493 33,000  Level Denver Center
10:09PM 38.2644 -107.9517 63° Northeast 431 496 33,000  Level Denver Center
10:10PM 38.3164 -107.8247 62° Northeast 425 489 33,000  Level Denver Center
10:11PM 38.3764 -107.6753 63° Northeast 425 489 33,000  Level Denver Center
10:12PM 38.4275 -107.5456 63° Northeast 428 493 33,000  Level Denver Center
10:13PM 38.4881 -107.3928 63° Northeast 432 497 33,000  Level Denver Center
10:14PM 38.5403 -107.2606 63° Northeast 435 501 33,000  Level Denver Center
10:15PM 38.5914 -107.1269 64° Northeast 433 498 33,000  Level Denver Center
10:16PM 38.6439 -106.9922 63° Northeast 427 491 33,000  Level Denver Center
10:17PM 38.6964 -106.8567 64° Northeast 428 493 33,000  Level Denver Center
10:18PM 38.7600 -106.6931 63° Northeast 429 494 33,000  Level Denver Center
10:19PM 38.8131 -106.5550 64° Northeast 432 497 33,000  Level Denver Center
10:20PM 38.8656 -106.4186 64° Northeast 429 494 33,000  Level Denver Center
10:21PM 38.9094 -106.3017 64° Northeast 428 493 33,000  Level Denver Center
10:22PM 38.9689 -106.1450 64° Northeast 427 491 33,000  Level Denver Center
10:23PM 39.0206 -106.0064 64° Northeast 430 495 33,000  Level Denver Center
10:25PM 39.0725 -105.8672 64° Northeast 432 497 33,000  Level Denver Center
10:26PM 39.1453 -105.6706 64° Northeast 433 498 33,000  Level Denver Center
10:27PM 39.1967 -105.5322 64° Northeast 433 498 33,000  Level Denver Center
10:28PM 39.2494 -105.3925 64° Northeast 435 501 33,000  Level Denver Center
10:29PM 39.3131 -105.2189 65° Northeast 433 498 33,000  Level Denver Center
10:30PM 39.3678 -105.0686 65° Northeast 433 498 33,000  Level Denver Center
10:31PM 39.4106 -104.9239 69° East 433 498 33,000  Level Denver Center
10:32PM 39.4503 -104.7758 71° East 437 503 33,000  Level Denver Center
10:33PM 39.4944 -104.6181 70° East 436 502 33,000  Level Denver Center
10:34PM 39.5358 -104.4725 70° East 434 499 33,000  Level Denver Center
10:35PM 39.5756 -104.3244 71° East 437 503 33,000  Level Denver Center
10:36PM 39.6258 -104.1433 70° East 436 502 33,000  Level Denver Center
10:37PM 39.6700 -103.9833 70° East 439 505 33,000  Level Denver Center
10:38PM 39.7106 -103.8350 70° East 438 504 33,000  Level Denver Center
10:39PM 39.7481 -103.6947 71° East 434 499 33,000  Level Denver Center
10:40PM 39.7947 -103.5286 70° East 437 503 33,000  Level Denver Center
10:41PM 39.8325 -103.3833 71° East 445 512 33,000  Level Denver Center
10:43PM 39.8781 -103.2133 71° East 447 514 33,000  Level Denver Center
10:44PM 39.9156 -103.0664 72° East 448 516 33,000  Level Denver Center
10:45PM 39.9542 -102.9208 71° East 445 512 33,000  Level Denver Center
10:46PM 39.9922 -102.7744 71° East 446 513 33,000  Level Denver Center
10:47PM 40.0364 -102.6014 72° East 450 518 33,000  Level Denver Center
10:48PM 40.0797 -102.4269 72° East 452 520 33,000  Level Denver Center
10:49PM 40.1169 -102.2786 72° East 451 519 33,000  Level Denver Center
10:50PM 40.1556 -102.1289 71° East 455 524 33,000  Level Denver Center
10:51PM 40.1989 -101.9544 72° East 453 521 33,000  Level Denver Center
10:52PM 40.2358 -101.8039 72° East 455 524 33,000  Level Denver Center
10:53PM 40.2789 -101.6300 72° East 451 519 33,000  Level Denver Center
10:54PM 40.3164 -101.4792 72° East 455 524 33,000  Level Denver Center
10:55PM 40.3522 -101.3278 73° East 456 525 33,000  Level Denver Center
10:56PM 40.3942 -101.1533 72° East 451 519 33,000  Level Denver Center
10:57PM 40.4303 -101.0047 72° East 450 518 33,000  Level Denver Center
10:58PM 40.4706 -100.8328 73° East 444 511 33,000  Level Denver Center
10:59PM 40.5050 -100.6861 73° East 444 511 33,000  Level Denver Center
11:00PM 40.5447 -100.5181 73° East 436 502 33,000  Level Denver Center
11:01PM 40.5786 -100.3725 73° East 438 504 33,000  Level Denver Center
11:02PM 40.6131 -100.2269 73° East 438 504 33,000  Level Denver Center
11:03PM 40.6514 -100.0569 73° East 437 503 33,000  Level Denver Center
11:04PM 40.6847 -99.9092 73° East 440 506 33,000  Level Denver Center
11:05PM 40.7217 -99.7500 73° East 440 506 33,000  Level Denver Center
11:06PM 40.7564 -99.5956 73° East 439 505 33,000  Level Denver Center
11:06PM 40.7775 -99.5036 73° East 440 506 33,000  Level Minneapolis Center
11:08PM 40.8108 -99.3489 74° East 440 506 33,000  Level Minneapolis Center
11:08PM 40.8236 -99.2864 75° East 439 505 33,000  Level Denver Center
11:09PM 40.8600 -99.1206 74° East 441 507 33,000  Level Denver Center
11:10PM 40.8778 -99.0392 74° East 440 506 33,000  Level Minneapolis Center
11:10PM 40.8978 -98.9461 74° East 442 509 33,000  Level Denver Center
11:11PM 40.9297 -98.7958 74° East 444 511 33,000  Level Denver Center
11:12PM 40.9453 -98.7244 74° East 446 513 33,000  Level Minneapolis Center
11:13PM 40.9797 -98.5656 74° East 448 516 33,000  Level Minneapolis Center
11:14PM 41.0183 -98.3836 74° East 449 517 33,000  Level Minneapolis Center
11:15PM 41.0511 -98.2244 75° East 451 519 33,000  Level Minneapolis Center
11:16PM 41.0847 -98.0653 74° East 450 518 33,000  Level Minneapolis Center
11:17PM 41.1178 -97.9042 75° East 452 520 33,000  Level Minneapolis Center
11:18PM 41.1511 -97.7422 75° East 455 524 33,000  Level Minneapolis Center
11:19PM 41.1839 -97.5797 75° East 456 525 33,000  Level Minneapolis Center
11:20PM 41.2172 -97.4158 75° East 459 528 33,000  Level Minneapolis Center
11:21PM 41.2536 -97.2369 75° East 468 539 33,000  Level Minneapolis Center
11:22PM 41.2928 -97.0386 75° East 464 534 33,000  Level Minneapolis Center
11:23PM 41.3233 -96.8886 75° East 426 490 33,000  Level Minneapolis Center
11:24PM 41.3528 -96.7336 76° East 431 496 33,000  Level Minneapolis Center
11:25PM 41.3894 -96.5472 75° East 433 498 33,000  Level Minneapolis Center
11:26PM 41.4200 -96.3894 75° East 438 504 33,000  Level Minneapolis Center
11:27PM 41.4481 -96.2403 76° East 445 512 33,000  Level Minneapolis Center
11:28PM 41.4778 -96.0806 76° East 444 511 33,000  Level Minneapolis Center
11:29PM 41.5078 -95.9211 76° East 443 510 33,000  Level Minneapolis Center
11:30PM 41.5369 -95.7617 76° East 440 506 33,000  Level Minneapolis Center
11:31PM 41.5708 -95.5811 76° East 440 506 33,000  Level Minneapolis Center
11:32PM 41.6000 -95.4197 76° East 446 513 33,000  Level Minneapolis Center
11:33PM 41.6292 -95.2603 76° East 443 510 33,000  Level Minneapolis Center
11:35PM 41.6642 -95.0692 76° East 441 507 33,000  Level Minneapolis Center
11:36PM 41.6911 -94.9081 77° East 444 511 33,000  Level Minneapolis Center
11:37PM 41.7194 -94.7469 77° East 445 512 33,000  Level Minneapolis Center
11:38PM 41.7431 -94.6178 76° East 447 514 33,000  Level Minneapolis Center
11:39PM 41.7703 -94.4542 77° East 450 518 33,000  Level Minneapolis Center
11:40PM 41.8047 -94.2589 77° East 449 517 33,000  Level Minneapolis Center
11:41PM 41.8322 -94.0947 77° East 452 520 33,000  Level Minneapolis Center
11:42PM 41.8664 -93.8978 77° East 453 521 33,000  Level Minneapolis Center
11:43PM 41.8881 -93.7603 78° East 454 522 33,000  Level Minneapolis Center
11:44PM 41.9203 -93.5636 78° East 452 520 33,000  Level Minneapolis Center
11:45PM 41.9447 -93.4153 77° East 456 525 33,000  Level Minneapolis Center
11:46PM 42.0086 -93.2625 61° Northeast 481 554 33,000  Level Minneapolis Center
11:47PM 42.0486 -93.1061 71° East 453 521 33,000  Level Minneapolis Center
11:48PM 42.0664 -92.9136 83° East 439 505 33,000  Level Minneapolis Center
11:49PM 42.0833 -92.7531 82° East 436 502 33,000  Level Chicago Center
11:50PM 42.0997 -92.5922 82° East 438 504 33,000  Level Chicago Center
11:51PM 42.1139 -92.4328 83° East 435 501 33,000  Level Chicago Center
11:52PM 42.1306 -92.2753 82° East 433 498 33,000  Level Chicago Center
11:53PM 42.1597 -92.1172 76° East 441 507 33,000  Level Chicago Center
11:54PM 42.1856 -91.9597 77° East 435 501 33,000  Level Chicago Center
11:55PM 42.2075 -91.7989 80° East 440 506 33,000  Level Chicago Center
11:56PM 42.2367 -91.6069 78° East 443 510 33,000  Level Chicago Center
11:57PM 42.2606 -91.4444 79° East 448 516 33,000  Level Chicago Center
11:58PM 42.2839 -91.2789 79° East 454 522 33,000  Level Chicago Center
11:59PM 42.3069 -91.1164 79° East 453 521 33,000  Level Chicago Center
12:00AM 42.3322 -90.9567 78° East 443 510 33,000  Level Chicago Center
12:01AM 42.3572 -90.7969 78° East 440 506 33,000  Level Chicago Center
12:02AM 42.3875 -90.6050 78° East 443 510 33,000  Level Chicago Center
12:03AM 42.4128 -90.4419 78° East 449 517 33,000  Level Chicago Center
12:04AM 42.4306 -90.2786 82° East 446 513 33,000  Level Chicago Center
12:05AM 42.4497 -90.1164 81° East 442 509 33,000  Level Chicago Center
12:06AM 42.4669 -89.9572 82° East 434 499 33,000  Level Chicago Center
12:07AM 42.4836 -89.7950 82° East 428 493 33,000 -420 Level Chicago Center
12:08AM 42.5014 -89.6350 81° East 431 496 32,200 -900 Descending Chicago Center
12:09AM 42.5169 -89.4792 82° East 420 483 31,300 -600 Descending Chicago Center
12:10AM 42.5344 -89.3208 81° East 424 488 31,000 -180 Descending Chicago Center
12:11AM 42.5506 -89.1597 82° East 432 497 31,000  Level Chicago Center
12:12AM 42.5486 -89.0056 91° East 419 482 31,000  Level Chicago Center
12:13AM 42.4642 -88.9594 158° South 351 404 31,000  Level Chicago Center
12:14AM 42.3753 -89.0428 215° Southwest 353 406 31,000  Level Chicago Center
12:15AM 42.3792 -89.1847 272° West 392 451 31,000  Level Chicago Center
12:16AM 42.4158 -89.3272 289° West 402 463 31,000  Level Chicago Center
12:17AM 42.4511 -89.4719 288° West 405 466 31,000  Level Chicago Center
12:18AM 42.4864 -89.6169 288° West 405 466 31,000  Level Chicago Center
12:19AM 42.5739 -89.7150 320° Northwest 449 517 31,000  Level Chicago Center
12:20AM 42.6800 -89.6283 31° Northeast 475 547 31,000  Level Chicago Center
12:21AM 42.6581 -89.4906 102° East 386 444 31,000  Level Chicago Center
12:22AM 42.6181 -89.3569 112° Southeast 385 443 31,000  Level Chicago Center
12:23AM 42.5839 -89.2161 108° East 392 451 31,000 -300 Level Chicago Center
12:24AM 42.5494 -89.0756 108° East 392 451 30,500 -780 Descending Chicago Center
12:25AM 42.4647 -89.0186 154° Southeast 349 402 29,500 -1,020 Descending Chicago Center
12:26AM 42.3914 -89.0839 213° Southwest 331 381 28,500 -780 Descending Chicago Center
12:27AM 42.3911 -89.2197 270° West 373 429 28,000 -300 Descending Chicago Center
12:28AM 42.4264 -89.3542 290° West 379 436 28,000  Level Chicago Center
12:29AM 42.4581 -89.4867 288° West 370 426 28,000 -600 Level Chicago Center
12:30AM 42.4892 -89.6169 288° West 365 420 26,900 -1,020 Descending Chicago Center
12:31AM 42.5742 -89.7008 324° Northwest 415 478 26,000 -840 Descending Chicago Center
12:32AM 42.6600 -89.6047 39° Northeast 413 475 25,200 -900 Descending Chicago Center
12:33AM 42.6444 -89.4694 99° East 361 415 24,300 -840 Descending Chicago Center
12:34AM 42.6153 -89.3392 107° East 360 414 23,600 -720 Descending Chicago Center
12:35AM 42.5839 -89.2158 109° East 350 403 22,900 -780 Descending Chicago Center
12:36AM 42.5472 -89.0733 109° East 344 396 22,100 -780 Descending Chicago Center
12:37AM 42.4750 -89.0211 152° Southeast 301 346 21,400 -900 Descending Chicago Center
12:38AM 42.4086 -89.0739 210° Southwest 301 346 20,400 -1,560 Descending Chicago Center
12:39AM 42.4619 -89.1722 306° West 365 420 18,300 -1,860 Descending Chicago Center
12:40AM 42.5475 -89.1050 30° Northeast 386 444 16,700 -1,260 Descending Chicago Center
12:41AM 42.5292 -88.9733 101° East 355 409 15,800 -1,920 Descending Chicago Center
12:42AM 42.4936 -88.8511 111° Southeast 351 404 12,900 -2,400 Descending Chicago Center
12:43AM 42.4539 -88.7339 115° Southeast 345 397 11,000 -1,620 Descending Chicago Center
12:44AM 42.4175 -88.6286 115° Southeast 320 368 9,700 -960 Descending Chicago Center
12:45AM 42.3856 -88.5306 114° Southeast 296 341 9,100 -780 Descending Chicago Center
12:46AM 42.3558 -88.4303 112° Southeast 290 334 8,200 -1,020 Descending Chicago Center
12:47AM 42.3233 -88.3258 113° Southeast 289 333 7,100 -600 Descending Chicago Center
12:48AM 42.2744 -88.2542 133° Southeast 273 314 7,000 -180 Descending Chicago Center
12:49AM 42.2167 -88.1878 140° Southeast 273 314 6,800 -1,020 Descending Chicago Center
12:50AM 42.1586 -88.1236 141° Southeast 271 312 5,000 -1,380 Descending Chicago Center
12:51AM 42.1000 -88.0667 144° Southeast 218 251 4,200 -900 Descending Chicago TRACON